Vineland, Colorado
Current Conditions -  °F | °C
As of 10:53 AM on Wednesday 28 Jan 2015 (Local Time) from KPUB Reporting Station
Clear Clear  
Wind Chill: 63°   Ceiling: Unl
Heat Index: 63°   Visibility: 10mi
Dew Point: 21°   Wind: 30mph
Humidity: 20%   Direction: 310°NW
Pressure: 30.05"   Gusts: 39mph
Location:  38.2482°N, 104.47°W
Report Text: KPUB 281753Z 31026G34KT 10SM CLR 17/M06 A3005 RMK AO2 PK WND 31034/1752 SLP138 T01721061 10172 20117 50013
Loading
Personal Weather Stations






























Interactive Weather Map New forecast layout! Learn more

10-Day Weather Forecast

Advertisements
Track Severe Weather on mobile